sensor_id;sensor_type;location;lat;lon;timestamp;P1;durP1;ratioP1;P2;durP2;ratioP2
56457;SDS011;42360;42.918;12.366;2024-03-23T00:53:29;9.52;;;5.97;;
56457;SDS011;42360;42.918;12.366;2024-03-23T00:55:55;10.40;;;6.72;;
56457;SDS011;42360;42.918;12.366;2024-03-23T00:58:20;10.18;;;5.95;;
56457;SDS011;42360;42.918;12.366;2024-03-23T01:00:46;11.32;;;6.13;;
56457;SDS011;42360;42.918;12.366;2024-03-23T01:03:11;9.48;;;6.07;;
56457;SDS011;42360;42.918;12.366;2024-03-23T01:05:37;9.90;;;6.32;;
56457;SDS011;42360;42.918;12.366;2024-03-23T01:08:02;10.77;;;6.50;;
56457;SDS011;42360;42.918;12.366;2024-03-23T01:10:28;7.60;;;5.78;;
56457;SDS011;42360;42.918;12.366;2024-03-23T01:12:53;11.75;;;6.63;;
56457;SDS011;42360;42.918;12.366;2024-03-23T01:15:19;8.48;;;6.38;;
56457;SDS011;42360;42.918;12.366;2024-03-23T01:17:44;13.73;;;6.50;;
56457;SDS011;42360;42.918;12.366;2024-03-23T01:20:10;11.25;;;5.97;;
56457;SDS011;42360;42.918;12.366;2024-03-23T01:22:35;10.23;;;5.88;;
56457;SDS011;42360;42.918;12.366;2024-03-23T01:25:01;11.35;;;6.75;;
56457;SDS011;42360;42.918;12.366;2024-03-23T01:27:26;10.32;;;6.53;;
56457;SDS011;42360;42.918;12.366;2024-03-23T01:29:52;11.13;;;6.30;;
56457;SDS011;42360;42.918;12.366;2024-03-23T01:32:17;8.50;;;5.25;;
56457;SDS011;42360;42.918;12.366;2024-03-23T01:34:43;8.73;;;6.18;;
56457;SDS011;42360;42.918;12.366;2024-03-23T01:37:09;10.27;;;6.53;;
56457;SDS011;42360;42.918;12.366;2024-03-23T01:39:35;8.52;;;5.40;;
56457;SDS011;42360;42.918;12.366;2024-03-23T01:42:00;8.75;;;5.53;;
56457;SDS011;42360;42.918;12.366;2024-03-23T01:44:26;9.80;;;6.05;;
56457;SDS011;42360;42.918;12.366;2024-03-23T01:46:51;9.50;;;6.05;;
56457;SDS011;42360;42.918;12.366;2024-03-23T01:49:17;9.32;;;5.70;;
56457;SDS011;42360;42.918;12.366;2024-03-23T01:51:42;9.57;;;5.20;;
56457;SDS011;42360;42.918;12.366;2024-03-23T01:54:08;7.63;;;5.30;;
56457;SDS011;42360;42.918;12.366;2024-03-23T01:56:34;9.07;;;5.60;;
56457;SDS011;42360;42.918;12.366;2024-03-23T01:59:06;10.30;;;5.30;;
56457;SDS011;42360;42.918;12.366;2024-03-23T02:01:32;7.15;;;5.38;;
56457;SDS011;42360;42.918;12.366;2024-03-23T02:03:58;10.65;;;5.63;;
56457;SDS011;42360;42.918;12.366;2024-03-23T02:06:24;8.82;;;5.70;;
56457;SDS011;42360;42.918;12.366;2024-03-23T02:08:49;9.40;;;6.03;;
56457;SDS011;42360;42.918;12.366;2024-03-23T02:11:15;9.68;;;6.53;;
56457;SDS011;42360;42.918;12.366;2024-03-23T02:13:40;7.15;;;4.70;;
56457;SDS011;42360;42.918;12.366;2024-03-23T02:16:06;8.80;;;5.10;;
56457;SDS011;42360;42.918;12.366;2024-03-23T02:18:35;9.25;;;5.93;;
56457;SDS011;42360;42.918;12.366;2024-03-23T02:21:00;8.13;;;5.53;;
56457;SDS011;42360;42.918;12.366;2024-03-23T02:23:26;9.90;;;5.97;;
56457;SDS011;42360;42.918;12.366;2024-03-23T02:25:52;7.45;;;4.85;;
56457;SDS011;42360;42.918;12.366;2024-03-23T02:28:20;8.20;;;5.57;;
56457;SDS011;42360;42.918;12.366;2024-03-23T02:30:47;8.38;;;5.80;;
56457;SDS011;42360;42.918;12.366;2024-03-23T02:33:13;8.32;;;5.90;;
56457;SDS011;42360;42.918;12.366;2024-03-23T02:35:39;11.32;;;6.97;;
56457;SDS011;42360;42.918;12.366;2024-03-23T02:38:04;9.60;;;6.13;;
56457;SDS011;42360;42.918;12.366;2024-03-23T02:40:29;10.48;;;6.50;;
56457;SDS011;42360;42.918;12.366;2024-03-23T02:42:55;7.95;;;5.53;;
56457;SDS011;42360;42.918;12.366;2024-03-23T02:45:21;10.13;;;6.10;;
56457;SDS011;42360;42.918;12.366;2024-03-23T02:47:47;7.97;;;5.63;;
56457;SDS011;42360;42.918;12.366;2024-03-23T02:50:16;8.15;;;5.63;;
56457;SDS011;42360;42.918;12.366;2024-03-23T02:52:43;8.82;;;5.68;;
56457;SDS011;42360;42.918;12.366;2024-03-23T02:55:08;10.40;;;6.45;;
56457;SDS011;42360;42.918;12.366;2024-03-23T02:57:33;9.15;;;5.65;;
56457;SDS011;42360;42.918;12.366;2024-03-23T02:59:59;8.82;;;5.53;;
56457;SDS011;42360;42.918;12.366;2024-03-23T03:02:25;8.98;;;6.18;;
56457;SDS011;42360;42.918;12.366;2024-03-23T03:04:50;8.25;;;5.90;;
56457;SDS011;42360;42.918;12.366;2024-03-23T03:07:16;9.25;;;5.88;;
56457;SDS011;42360;42.918;12.366;2024-03-23T03:09:41;11.95;;;5.82;;
56457;SDS011;42360;42.918;12.366;2024-03-23T03:12:07;8.73;;;5.50;;
56457;SDS011;42360;42.918;12.366;2024-03-23T03:14:32;8.90;;;5.88;;
56457;SDS011;42360;42.918;12.366;2024-03-23T03:16:58;8.65;;;5.72;;
56457;SDS011;42360;42.918;12.366;2024-03-23T03:19:24;6.50;;;5.60;;
56457;SDS011;42360;42.918;12.366;2024-03-23T03:21:49;8.85;;;5.85;;
56457;SDS011;42360;42.918;12.366;2024-03-23T03:24:15;9.35;;;6.07;;
56457;SDS011;42360;42.918;12.366;2024-03-23T03:26:41;8.85;;;5.45;;
56457;SDS011;42360;42.918;12.366;2024-03-23T03:29:07;9.43;;;5.65;;
56457;SDS011;42360;42.918;12.366;2024-03-23T03:31:32;7.40;;;5.82;;
56457;SDS011;42360;42.918;12.366;2024-03-23T03:33:58;7.43;;;5.57;;
56457;SDS011;42360;42.918;12.366;2024-03-23T03:36:23;9.65;;;6.35;;
56457;SDS011;42360;42.918;12.366;2024-03-23T03:38:49;9.15;;;6.03;;
56457;SDS011;42360;42.918;12.366;2024-03-23T03:41:14;11.18;;;6.22;;
56457;SDS011;42360;42.918;12.366;2024-03-23T03:43:40;9.35;;;6.45;;
56457;SDS011;42360;42.918;12.366;2024-03-23T03:46:05;9.65;;;6.30;;
56457;SDS011;42360;42.918;12.366;2024-03-23T03:48:33;9.48;;;6.82;;
56457;SDS011;42360;42.918;12.366;2024-03-23T03:50:58;9.13;;;6.38;;
56457;SDS011;42360;42.918;12.366;2024-03-23T03:53:24;11.63;;;6.60;;
56457;SDS011;42360;42.918;12.366;2024-03-23T03:55:49;9.10;;;6.85;;
56457;SDS011;42360;42.918;12.366;2024-03-23T03:58:15;8.50;;;6.68;;
56457;SDS011;42360;42.918;12.366;2024-03-23T04:00:40;11.73;;;6.93;;
56457;SDS011;42360;42.918;12.366;2024-03-23T04:03:06;10.65;;;6.20;;
56457;SDS011;42360;42.918;12.366;2024-03-23T04:05:31;8.20;;;6.13;;
56457;SDS011;42360;42.918;12.366;2024-03-23T04:07:56;13.80;;;8.15;;
56457;SDS011;42360;42.918;12.366;2024-03-23T04:10:22;12.98;;;7.65;;
56457;SDS011;42360;42.918;12.366;2024-03-23T04:12:47;14.98;;;8.15;;
56457;SDS011;42360;42.918;12.366;2024-03-23T04:15:13;12.02;;;7.70;;
56457;SDS011;42360;42.918;12.366;2024-03-23T04:17:39;13.30;;;7.70;;
56457;SDS011;42360;42.918;12.366;2024-03-23T04:20:07;11.13;;;7.63;;
56457;SDS011;42360;42.918;12.366;2024-03-23T04:22:36;10.48;;;7.30;;
56457;SDS011;42360;42.918;12.366;2024-03-23T04:25:04;13.88;;;7.60;;
56457;SDS011;42360;42.918;12.366;2024-03-23T04:27:34;9.30;;;6.20;;
56457;SDS011;42360;42.918;12.366;2024-03-23T04:29:59;11.50;;;7.13;;
56457;SDS011;42360;42.918;12.366;2024-03-23T04:32:26;15.20;;;8.07;;
56457;SDS011;42360;42.918;12.366;2024-03-23T04:34:52;13.93;;;8.38;;
56457;SDS011;42360;42.918;12.366;2024-03-23T04:37:17;13.65;;;8.35;;
56457;SDS011;42360;42.918;12.366;2024-03-23T04:39:43;13.80;;;7.85;;
56457;SDS011;42360;42.918;12.366;2024-03-23T04:42:08;14.43;;;7.55;;
56457;SDS011;42360;42.918;12.366;2024-03-23T04:44:34;12.23;;;7.95;;
56457;SDS011;42360;42.918;12.366;2024-03-23T04:47:00;10.05;;;7.03;;
56457;SDS011;42360;42.918;12.366;2024-03-23T04:49:25;12.02;;;6.53;;
56457;SDS011;42360;42.918;12.366;2024-03-23T04:51:51;12.25;;;6.30;;
56457;SDS011;42360;42.918;12.366;2024-03-23T04:54:16;7.28;;;4.90;;
56457;SDS011;42360;42.918;12.366;2024-03-23T04:56:42;5.97;;;4.57;;
56457;SDS011;42360;42.918;12.366;2024-03-23T04:59:07;6.68;;;4.72;;
56457;SDS011;42360;42.918;12.366;2024-03-23T05:01:33;6.80;;;4.93;;
56457;SDS011;42360;42.918;12.366;2024-03-23T05:03:59;8.38;;;5.03;;
56457;SDS011;42360;42.918;12.366;2024-03-23T05:06:25;7.05;;;4.72;;
56457;SDS011;42360;42.918;12.366;2024-03-23T05:08:51;5.53;;;4.50;;
56457;SDS011;42360;42.918;12.366;2024-03-23T05:11:17;6.97;;;4.80;;
56457;SDS011;42360;42.918;12.366;2024-03-23T05:13:43;6.57;;;4.95;;
56457;SDS011;42360;42.918;12.366;2024-03-23T05:16:08;6.65;;;4.75;;
56457;SDS011;42360;42.918;12.366;2024-03-23T05:18:34;6.65;;;4.18;;
56457;SDS011;42360;42.918;12.366;2024-03-23T05:21:00;5.95;;;4.75;;
56457;SDS011;42360;42.918;12.366;2024-03-23T05:23:26;5.43;;;4.35;;
56457;SDS011;42360;42.918;12.366;2024-03-23T05:25:53;7.40;;;4.50;;
56457;SDS011;42360;42.918;12.366;2024-03-23T05:28:18;5.90;;;4.35;;
56457;SDS011;42360;42.918;12.366;2024-03-23T05:30:44;10.65;;;5.40;;
56457;SDS011;42360;42.918;12.366;2024-03-23T05:35:40;8.93;;;5.47;;
56457;SDS011;42360;42.918;12.366;2024-03-23T05:38:06;6.28;;;4.95;;
56457;SDS011;42360;42.918;12.366;2024-03-23T05:40:31;8.57;;;5.22;;
56457;SDS011;42360;42.918;12.366;2024-03-23T05:42:57;8.23;;;5.43;;
56457;SDS011;42360;42.918;12.366;2024-03-23T05:45:22;6.65;;;4.68;;
56457;SDS011;42360;42.918;12.366;2024-03-23T05:47:48;7.22;;;4.35;;
56457;SDS011;42360;42.918;12.366;2024-03-23T05:50:14;5.50;;;4.50;;
56457;SDS011;42360;42.918;12.366;2024-03-23T05:52:39;7.28;;;4.85;;
56457;SDS011;42360;42.918;12.366;2024-03-23T05:55:05;6.65;;;4.45;;
56457;SDS011;42360;42.918;12.366;2024-03-23T05:57:31;6.57;;;4.80;;
56457;SDS011;42360;42.918;12.366;2024-03-23T05:59:56;5.13;;;4.13;;
56457;SDS011;42360;42.918;12.366;2024-03-23T06:02:22;5.93;;;4.57;;
56457;SDS011;42360;42.918;12.366;2024-03-23T06:04:48;6.22;;;4.00;;
56457;SDS011;42360;42.918;12.366;2024-03-23T06:07:14;5.63;;;4.28;;
56457;SDS011;42360;42.918;12.366;2024-03-23T06:09:42;5.95;;;4.55;;
56457;SDS011;42360;42.918;12.366;2024-03-23T06:12:08;7.15;;;4.45;;
56457;SDS011;42360;42.918;12.366;2024-03-23T06:14:34;8.52;;;4.63;;
56457;SDS011;42360;42.918;12.366;2024-03-23T06:17:00;7.32;;;5.15;;
56457;SDS011;42360;42.918;12.366;2024-03-23T06:19:25;7.60;;;5.30;;
56457;SDS011;42360;42.918;12.366;2024-03-23T06:21:53;5.63;;;4.40;;
56457;SDS011;42360;42.918;12.366;2024-03-23T06:24:19;6.15;;;4.63;;
56457;SDS011;42360;42.918;12.366;2024-03-23T06:26:46;5.80;;;4.65;;
56457;SDS011;42360;42.918;12.366;2024-03-23T06:29:11;5.93;;;4.70;;
56457;SDS011;42360;42.918;12.366;2024-03-23T06:31:37;7.18;;;4.90;;
56457;SDS011;42360;42.918;12.366;2024-03-23T06:34:02;7.05;;;4.78;;
56457;SDS011;42360;42.918;12.366;2024-03-23T06:36:28;7.10;;;4.63;;
56457;SDS011;42360;42.918;12.366;2024-03-23T06:38:55;9.00;;;4.75;;
56457;SDS011;42360;42.918;12.366;2024-03-23T06:41:21;7.20;;;4.80;;
56457;SDS011;42360;42.918;12.366;2024-03-23T06:43:46;6.25;;;4.57;;
56457;SDS011;42360;42.918;12.366;2024-03-23T06:46:12;9.18;;;5.03;;
56457;SDS011;42360;42.918;12.366;2024-03-23T06:48:37;6.90;;;4.30;;
56457;SDS011;42360;42.918;12.366;2024-03-23T06:51:03;8.02;;;4.72;;
56457;SDS011;42360;42.918;12.366;2024-03-23T06:53:28;5.85;;;4.30;;
56457;SDS011;42360;42.918;12.366;2024-03-23T06:55:54;7.00;;;5.15;;
56457;SDS011;42360;42.918;12.366;2024-03-23T06:58:20;7.70;;;5.50;;
56457;SDS011;42360;42.918;12.366;2024-03-23T07:00:47;7.07;;;4.95;;
56457;SDS011;42360;42.918;12.366;2024-03-23T07:03:13;9.35;;;6.07;;
56457;SDS011;42360;42.918;12.366;2024-03-23T07:05:38;6.90;;;5.00;;
56457;SDS011;42360;42.918;12.366;2024-03-23T07:08:04;7.85;;;6.03;;
56457;SDS011;42360;42.918;12.366;2024-03-23T07:10:30;10.07;;;5.97;;
56457;SDS011;42360;42.918;12.366;2024-03-23T07:12:55;7.90;;;5.93;;
56457;SDS011;42360;42.918;12.366;2024-03-23T07:15:21;8.57;;;6.10;;
56457;SDS011;42360;42.918;12.366;2024-03-23T07:17:47;11.23;;;6.75;;
56457;SDS011;42360;42.918;12.366;2024-03-23T07:20:12;9.73;;;6.95;;
56457;SDS011;42360;42.918;12.366;2024-03-23T07:22:38;10.85;;;6.55;;
56457;SDS011;42360;42.918;12.366;2024-03-23T07:25:04;9.85;;;6.90;;
56457;SDS011;42360;42.918;12.366;2024-03-23T07:27:31;8.98;;;6.85;;
56457;SDS011;42360;42.918;12.366;2024-03-23T07:29:56;12.68;;;7.35;;
56457;SDS011;42360;42.918;12.366;2024-03-23T07:32:22;8.43;;;6.55;;
56457;SDS011;42360;42.918;12.366;2024-03-23T07:34:48;10.07;;;7.40;;
56457;SDS011;42360;42.918;12.366;2024-03-23T07:37:13;11.68;;;7.30;;
56457;SDS011;42360;42.918;12.366;2024-03-23T07:39:39;9.32;;;6.65;;
56457;SDS011;42360;42.918;12.366;2024-03-23T07:42:05;8.50;;;6.75;;
56457;SDS011;42360;42.918;12.366;2024-03-23T07:44:31;10.98;;;7.30;;
56457;SDS011;42360;42.918;12.366;2024-03-23T07:46:56;11.68;;;8.77;;
56457;SDS011;42360;42.918;12.366;2024-03-23T07:49:22;14.75;;;8.05;;
56457;SDS011;42360;42.918;12.366;2024-03-23T07:51:47;12.15;;;7.68;;
56457;SDS011;42360;42.918;12.366;2024-03-23T07:54:13;16.52;;;10.65;;
56457;SDS011;42360;42.918;12.366;2024-03-23T07:56:38;13.57;;;8.43;;
56457;SDS011;42360;42.918;12.366;2024-03-23T07:59:03;15.15;;;8.85;;
56457;SDS011;42360;42.918;12.366;2024-03-23T08:01:29;19.80;;;12.10;;
56457;SDS011;42360;42.918;12.366;2024-03-23T08:03:55;13.32;;;8.80;;
56457;SDS011;42360;42.918;12.366;2024-03-23T08:06:20;16.40;;;9.52;;
56457;SDS011;42360;42.918;12.366;2024-03-23T08:08:48;10.40;;;7.88;;
56457;SDS011;42360;42.918;12.366;2024-03-23T08:11:14;14.82;;;8.80;;
56457;SDS011;42360;42.918;12.366;2024-03-23T08:13:40;12.18;;;7.65;;
56457;SDS011;42360;42.918;12.366;2024-03-23T08:16:06;11.35;;;7.47;;
56457;SDS011;42360;42.918;12.366;2024-03-23T08:18:32;7.25;;;5.53;;
56457;SDS011;42360;42.918;12.366;2024-03-23T08:23:27;13.40;;;7.53;;
56457;SDS011;42360;42.918;12.366;2024-03-23T08:26:00;12.40;;;7.25;;
56457;SDS011;42360;42.918;12.366;2024-03-23T08:28:26;12.15;;;7.57;;
56457;SDS011;42360;42.918;12.366;2024-03-23T08:30:52;7.75;;;5.40;;
56457;SDS011;42360;42.918;12.366;2024-03-23T08:33:18;12.82;;;7.03;;
56457;SDS011;42360;42.918;12.366;2024-03-23T08:35:52;6.60;;;4.65;;
56457;SDS011;42360;42.918;12.366;2024-03-23T08:38:19;12.88;;;6.70;;
56457;SDS011;42360;42.918;12.366;2024-03-23T08:40:45;4.10;;;2.80;;
56457;SDS011;42360;42.918;12.366;2024-03-23T08:43:10;8.25;;;5.38;;
56457;SDS011;42360;42.918;12.366;2024-03-23T08:45:35;6.50;;;4.90;;
56457;SDS011;42360;42.918;12.366;2024-03-23T08:48:01;12.13;;;7.30;;
56457;SDS011;42360;42.918;12.366;2024-03-23T08:50:30;10.43;;;6.68;;
56457;SDS011;42360;42.918;12.366;2024-03-23T08:52:55;7.47;;;5.18;;
56457;SDS011;42360;42.918;12.366;2024-03-23T08:55:20;6.43;;;4.40;;
56457;SDS011;42360;42.918;12.366;2024-03-23T08:57:46;4.63;;;3.88;;
56457;SDS011;42360;42.918;12.366;2024-03-23T09:00:11;5.57;;;4.53;;
56457;SDS011;42360;42.918;12.366;2024-03-23T09:02:37;5.57;;;4.50;;
56457;SDS011;42360;42.918;12.366;2024-03-23T09:05:03;5.07;;;4.35;;
56457;SDS011;42360;42.918;12.366;2024-03-23T09:07:32;7.65;;;5.13;;
56457;SDS011;42360;42.918;12.366;2024-03-23T09:09:58;8.20;;;4.90;;
56457;SDS011;42360;42.918;12.366;2024-03-23T09:12:23;3.30;;;3.00;;
56457;SDS011;42360;42.918;12.366;2024-03-23T09:14:49;7.18;;;5.07;;
56457;SDS011;42360;42.918;12.366;2024-03-23T09:17:15;6.53;;;5.05;;
56457;SDS011;42360;42.918;12.366;2024-03-23T09:19:41;7.93;;;4.18;;
56457;SDS011;42360;42.918;12.366;2024-03-23T09:22:07;8.23;;;5.47;;
56457;SDS011;42360;42.918;12.366;2024-03-23T09:24:32;4.15;;;3.75;;
56457;SDS011;42360;42.918;12.366;2024-03-23T09:26:58;8.27;;;5.10;;
56457;SDS011;42360;42.918;12.366;2024-03-23T09:29:23;11.20;;;6.25;;
56457;SDS011;42360;42.918;12.366;2024-03-23T09:31:48;6.93;;;5.20;;
56457;SDS011;42360;42.918;12.366;2024-03-23T09:34:14;5.70;;;3.95;;
56457;SDS011;42360;42.918;12.366;2024-03-23T09:36:40;6.75;;;5.60;;
56457;SDS011;42360;42.918;12.366;2024-03-23T09:39:06;6.68;;;5.35;;
56457;SDS011;42360;42.918;12.366;2024-03-23T09:41:34;6.20;;;4.25;;
56457;SDS011;42360;42.918;12.366;2024-03-23T09:44:00;5.50;;;4.47;;
56457;SDS011;42360;42.918;12.366;2024-03-23T09:46:26;4.80;;;3.95;;
56457;SDS011;42360;42.918;12.366;2024-03-23T09:48:53;3.38;;;2.38;;
56457;SDS011;42360;42.918;12.366;2024-03-23T09:51:20;2.78;;;1.75;;
56457;SDS011;42360;42.918;12.366;2024-03-23T09:53:45;1.92;;;1.50;;
56457;SDS011;42360;42.918;12.366;2024-03-23T09:56:11;2.00;;;1.83;;
56457;SDS011;42360;42.918;12.366;2024-03-23T09:58:36;2.78;;;2.17;;
56457;SDS011;42360;42.918;12.366;2024-03-23T10:01:02;3.85;;;2.33;;
56457;SDS011;42360;42.918;12.366;2024-03-23T10:03:28;1.50;;;1.40;;
56457;SDS011;42360;42.918;12.366;2024-03-23T10:06:00;2.25;;;2.00;;
56457;SDS011;42360;42.918;12.366;2024-03-23T10:08:27;2.60;;;1.92;;
56457;SDS011;42360;42.918;12.366;2024-03-23T10:10:54;3.17;;;2.10;;
56457;SDS011;42360;42.918;12.366;2024-03-23T10:13:26;2.80;;;2.22;;
56457;SDS011;42360;42.918;12.366;2024-03-23T10:15:56;1.92;;;1.73;;
56457;SDS011;42360;42.918;12.366;2024-03-23T10:18:23;1.05;;;1.02;;
56457;SDS011;42360;42.918;12.366;2024-03-23T10:21:06;3.17;;;2.63;;
56457;SDS011;42360;42.918;12.366;2024-03-23T10:23:32;1.48;;;1.33;;
56457;SDS011;42360;42.918;12.366;2024-03-23T10:31:23;2.70;;;2.35;;
56457;SDS011;42360;42.918;12.366;2024-03-23T10:33:49;2.92;;;2.30;;
56457;SDS011;42360;42.918;12.366;2024-03-23T10:36:15;3.63;;;2.75;;
56457;SDS011;42360;42.918;12.366;2024-03-23T10:38:41;1.88;;;1.77;;
56457;SDS011;42360;42.918;12.366;2024-03-23T10:41:09;3.17;;;2.90;;
56457;SDS011;42360;42.918;12.366;2024-03-23T10:43:38;2.05;;;1.85;;
56457;SDS011;42360;42.918;12.366;2024-03-23T10:46:04;3.63;;;2.88;;
56457;SDS011;42360;42.918;12.366;2024-03-23T10:48:31;2.67;;;2.45;;
56457;SDS011;42360;42.918;12.366;2024-03-23T10:50:57;3.10;;;2.78;;
56457;SDS011;42360;42.918;12.366;2024-03-23T10:53:25;3.17;;;2.70;;
56457;SDS011;42360;42.918;12.366;2024-03-23T10:55:51;3.63;;;2.42;;
56457;SDS011;42360;42.918;12.366;2024-03-23T10:58:18;2.78;;;2.40;;
56457;SDS011;42360;42.918;12.366;2024-03-23T11:00:48;2.60;;;2.28;;
56457;SDS011;42360;42.918;12.366;2024-03-23T11:03:29;1.50;;;1.40;;
56457;SDS011;42360;42.918;12.366;2024-03-23T11:05:55;5.28;;;2.88;;
56457;SDS011;42360;42.918;12.366;2024-03-23T11:08:39;4.85;;;3.08;;
56457;SDS011;42360;42.918;12.366;2024-03-23T11:11:19;2.47;;;2.28;;
56457;SDS011;42360;42.918;12.366;2024-03-23T11:13:50;2.47;;;2.22;;
56457;SDS011;42360;42.918;12.366;2024-03-23T11:16:17;2.30;;;2.10;;
56457;SDS011;42360;42.918;12.366;2024-03-23T11:18:55;3.40;;;2.47;;
56457;SDS011;42360;42.918;12.366;2024-03-23T11:21:58;3.50;;;3.15;;
56457;SDS011;42360;42.918;12.366;2024-03-23T11:24:23;3.53;;;2.30;;
56457;SDS011;42360;42.918;12.366;2024-03-23T11:26:49;3.92;;;3.25;;
56457;SDS011;42360;42.918;12.366;2024-03-23T11:29:16;2.90;;;2.60;;
56457;SDS011;42360;42.918;12.366;2024-03-23T11:31:48;4.88;;;3.15;;
56457;SDS011;42360;42.918;12.366;2024-03-23T11:34:15;2.85;;;2.58;;
56457;SDS011;42360;42.918;12.366;2024-03-23T11:36:41;3.22;;;2.67;;
56457;SDS011;42360;42.918;12.366;2024-03-23T11:39:14;3.70;;;2.28;;
56457;SDS011;42360;42.918;12.366;2024-03-23T11:44:23;2.80;;;2.42;;
56457;SDS011;42360;42.918;12.366;2024-03-23T11:46:51;4.10;;;3.58;;
56457;SDS011;42360;42.918;12.366;2024-03-23T11:49:23;2.10;;;1.90;;
56457;SDS011;42360;42.918;12.366;2024-03-23T11:51:52;3.53;;;3.22;;
56457;SDS011;42360;42.918;12.366;2024-03-23T11:54:22;3.88;;;2.80;;
56457;SDS011;42360;42.918;12.366;2024-03-23T11:59:34;2.70;;;2.50;;
56457;SDS011;42360;42.918;12.366;2024-03-23T12:02:05;6.47;;;4.55;;
56457;SDS011;42360;42.918;12.366;2024-03-23T12:04:32;5.40;;;3.90;;
56457;SDS011;42360;42.918;12.366;2024-03-23T12:07:09;4.75;;;3.53;;
56457;SDS011;42360;42.918;12.366;2024-03-23T12:09:34;3.80;;;3.33;;
56457;SDS011;42360;42.918;12.366;2024-03-23T12:12:05;3.53;;;2.88;;
56457;SDS011;42360;42.918;12.366;2024-03-23T12:14:39;3.30;;;2.67;;
56457;SDS011;42360;42.918;12.366;2024-03-23T12:17:12;3.45;;;2.85;;
56457;SDS011;42360;42.918;12.366;2024-03-23T12:19:38;3.65;;;3.35;;
56457;SDS011;42360;42.918;12.366;2024-03-23T12:22:05;4.20;;;3.75;;
56457;SDS011;42360;42.918;12.366;2024-03-23T12:24:32;4.70;;;2.83;;
56457;SDS011;42360;42.918;12.366;2024-03-23T12:27:01;4.75;;;4.22;;
56457;SDS011;42360;42.918;12.366;2024-03-23T12:29:32;2.47;;;2.28;;
56457;SDS011;42360;42.918;12.366;2024-03-23T12:32:02;2.13;;;2.03;;
56457;SDS011;42360;42.918;12.366;2024-03-23T12:34:28;2.83;;;2.60;;
56457;SDS011;42360;42.918;12.366;2024-03-23T12:36:55;5.18;;;4.07;;
56457;SDS011;42360;42.918;12.366;2024-03-23T12:39:20;4.00;;;2.10;;
56457;SDS011;42360;42.918;12.366;2024-03-23T12:41:46;1.35;;;1.25;;
56457;SDS011;42360;42.918;12.366;2024-03-23T12:44:12;2.67;;;1.48;;
56457;SDS011;42360;42.918;12.366;2024-03-23T12:46:38;1.05;;;0.90;;
56457;SDS011;42360;42.918;12.366;2024-03-23T12:49:04;3.17;;;1.13;;
56457;SDS011;42360;42.918;12.366;2024-03-23T12:51:30;1.13;;;1.10;;
56457;SDS011;42360;42.918;12.366;2024-03-23T12:53:56;1.70;;;1.27;;
56457;SDS011;42360;42.918;12.366;2024-03-23T12:56:21;1.67;;;1.17;;
56457;SDS011;42360;42.918;12.366;2024-03-23T12:58:47;2.00;;;1.80;;
56457;SDS011;42360;42.918;12.366;2024-03-23T13:01:20;1.85;;;1.15;;
56457;SDS011;42360;42.918;12.366;2024-03-23T13:03:49;1.65;;;1.00;;
56457;SDS011;42360;42.918;12.366;2024-03-23T13:06:15;1.85;;;1.40;;
56457;SDS011;42360;42.918;12.366;2024-03-23T13:08:42;3.45;;;1.33;;
56457;SDS011;42360;42.918;12.366;2024-03-23T13:11:09;1.00;;;0.90;;
56457;SDS011;42360;42.918;12.366;2024-03-23T13:13:36;0.60;;;0.60;;
56457;SDS011;42360;42.918;12.366;2024-03-23T13:16:01;2.17;;;1.00;;
56457;SDS011;42360;42.918;12.366;2024-03-23T13:18:28;4.05;;;1.45;;
56457;SDS011;42360;42.918;12.366;2024-03-23T13:20:54;1.58;;;1.00;;
56457;SDS011;42360;42.918;12.366;2024-03-23T13:23:20;3.22;;;1.08;;
56457;SDS011;42360;42.918;12.366;2024-03-23T13:25:55;1.40;;;1.30;;
56457;SDS011;42360;42.918;12.366;2024-03-23T13:28:21;1.67;;;1.33;;
56457;SDS011;42360;42.918;12.366;2024-03-23T13:30:54;1.23;;;1.13;;
56457;SDS011;42360;42.918;12.366;2024-03-23T13:33:20;1.35;;;1.17;;
56457;SDS011;42360;42.918;12.366;2024-03-23T13:35:50;0.60;;;0.50;;
56457;SDS011;42360;42.918;12.366;2024-03-23T13:38:16;0.95;;;0.82;;
56457;SDS011;42360;42.918;12.366;2024-03-23T13:40:51;0.60;;;0.60;;
56457;SDS011;42360;42.918;12.366;2024-03-23T13:43:24;2.40;;;0.77;;
56457;SDS011;42360;42.918;12.366;2024-03-23T13:45:55;0.90;;;0.90;;
56457;SDS011;42360;42.918;12.366;2024-03-23T13:48:22;2.97;;;1.10;;
56457;SDS011;42360;42.918;12.366;2024-03-23T13:51:01;1.60;;;1.50;;
56457;SDS011;42360;42.918;12.366;2024-03-23T13:53:27;2.15;;;1.23;;
56457;SDS011;42360;42.918;12.366;2024-03-23T13:55:53;1.65;;;1.30;;
56457;SDS011;42360;42.918;12.366;2024-03-23T13:58:19;1.30;;;1.10;;
56457;SDS011;42360;42.918;12.366;2024-03-23T14:00:45;1.95;;;0.80;;
56457;SDS011;42360;42.918;12.366;2024-03-23T14:03:11;0.80;;;0.80;;
56457;SDS011;42360;42.918;12.366;2024-03-23T14:05:37;1.92;;;1.15;;
56457;SDS011;42360;42.918;12.366;2024-03-23T14:08:06;1.42;;;1.15;;
56457;SDS011;42360;42.918;12.366;2024-03-23T14:10:32;2.38;;;0.77;;
56457;SDS011;42360;42.918;12.366;2024-03-23T14:12:58;1.25;;;0.80;;
56457;SDS011;42360;42.918;12.366;2024-03-23T14:15:27;0.65;;;0.65;;
56457;SDS011;42360;42.918;12.366;2024-03-23T14:17:52;2.30;;;1.30;;
56457;SDS011;42360;42.918;12.366;2024-03-23T14:20:19;0.50;;;0.50;;
56457;SDS011;42360;42.918;12.366;2024-03-23T14:22:45;2.53;;;0.63;;
56457;SDS011;42360;42.918;12.366;2024-03-23T14:25:11;0.85;;;0.55;;
56457;SDS011;42360;42.918;12.366;2024-03-23T14:27:36;1.40;;;0.90;;
56457;SDS011;42360;42.918;12.366;2024-03-23T14:30:04;0.90;;;0.73;;
56457;SDS011;42360;42.918;12.366;2024-03-23T14:32:33;0.77;;;0.68;;
56457;SDS011;42360;42.918;12.366;2024-03-23T14:35:02;0.70;;;0.70;;
56457;SDS011;42360;42.918;12.366;2024-03-23T14:37:28;0.85;;;0.68;;
56457;SDS011;42360;42.918;12.366;2024-03-23T14:39:57;1.00;;;0.90;;
56457;SDS011;42360;42.918;12.366;2024-03-23T14:42:23;0.77;;;0.77;;
56457;SDS011;42360;42.918;12.366;2024-03-23T14:44:51;0.80;;;0.80;;
56457;SDS011;42360;42.918;12.366;2024-03-23T14:47:17;0.85;;;0.85;;
56457;SDS011;42360;42.918;12.366;2024-03-23T14:49:44;1.23;;;0.95;;
56457;SDS011;42360;42.918;12.366;2024-03-23T14:52:13;0.82;;;0.80;;
56457;SDS011;42360;42.918;12.366;2024-03-23T14:54:39;1.50;;;1.30;;
56457;SDS011;42360;42.918;12.366;2024-03-23T14:57:05;3.58;;;1.27;;
56457;SDS011;42360;42.918;12.366;2024-03-23T14:59:31;3.92;;;1.60;;
56457;SDS011;42360;42.918;12.366;2024-03-23T15:01:57;1.27;;;1.13;;
56457;SDS011;42360;42.918;12.366;2024-03-23T15:04:23;2.97;;;1.63;;
56457;SDS011;42360;42.918;12.366;2024-03-23T15:06:48;1.38;;;1.27;;
56457;SDS011;42360;42.918;12.366;2024-03-23T15:09:14;2.03;;;1.60;;
56457;SDS011;42360;42.918;12.366;2024-03-23T15:11:40;3.33;;;1.30;;
56457;SDS011;42360;42.918;12.366;2024-03-23T15:14:05;0.95;;;0.90;;
56457;SDS011;42360;42.918;12.366;2024-03-23T15:16:32;2.30;;;1.65;;
56457;SDS011;42360;42.918;12.366;2024-03-23T15:18:58;1.85;;;1.20;;
56457;SDS011;42360;42.918;12.366;2024-03-23T15:21:23;2.53;;;1.55;;
56457;SDS011;42360;42.918;12.366;2024-03-23T15:23:49;1.70;;;1.20;;
56457;SDS011;42360;42.918;12.366;2024-03-23T15:26:14;1.83;;;1.70;;
56457;SDS011;42360;42.918;12.366;2024-03-23T15:28:41;0.95;;;0.90;;
56457;SDS011;42360;42.918;12.366;2024-03-23T15:31:08;1.13;;;1.02;;
56457;SDS011;42360;42.918;12.366;2024-03-23T15:33:36;4.07;;;1.60;;
56457;SDS011;42360;42.918;12.366;2024-03-23T15:36:02;1.88;;;1.20;;